Cleveland, Ohio
Traffic Map
Current Weather Conditions
Cleveland, Ohio
Few Clouds
Few Clouds
23°
Feels Like: 23°
Wind Chill: 23° Ceiling: Unl
Heat Index: 23° Visibility: 10mi
Dew Point: 13° Wind: 13mph
Humidity: 53% Direction: 170° (S)
Pressure: 30.08in Gusts: 0mph
Raw Report DataKBKL 251253Z 17011KT 10SM FEW070 23/13 A3008 RMK AO2 SLP183 T02280128
Traffic Incident Summary
Active as of:
Severity:
Category:
InformationThere was an issue retrieving the traffic information for this location. Please try a different location or try again shortly.
Advertisements
Track Severe Weather on mobile